createdAt,value
2017-10-17T00:02:03.774Z,61.7
2017-10-17T00:07:03.929Z,61.6
2017-10-17T00:12:03.514Z,61.6
2017-10-17T00:17:04.052Z,61.5
2017-10-17T00:22:03.141Z,61.4
2017-10-17T00:27:03.640Z,61.4
2017-10-17T00:32:03.249Z,61.5
2017-10-17T00:37:03.632Z,61.4
2017-10-17T00:42:03.315Z,61.2
2017-10-17T00:47:03.764Z,61.0
2017-10-17T00:52:03.154Z,61.0
2017-10-17T00:57:03.853Z,61.2
2017-10-17T01:02:03.576Z,61.1
2017-10-17T01:07:03.419Z,61.4
2017-10-17T01:12:03.998Z,61.0
2017-10-17T01:17:03.708Z,61.1
2017-10-17T01:22:03.760Z,61.1
2017-10-17T01:27:03.185Z,61.0
2017-10-17T01:32:03.843Z,60.9
2017-10-17T01:37:03.681Z,60.9
2017-10-17T01:42:03.066Z,60.8
2017-10-17T01:47:03.830Z,60.9
2017-10-17T01:52:03.501Z,60.7
2017-10-17T01:57:03.076Z,60.6
2017-10-17T02:02:03.670Z,60.6
2017-10-17T02:07:03.366Z,60.6
2017-10-17T02:12:03.902Z,60.5
2017-10-17T02:17:03.765Z,60.5
2017-10-17T02:22:03.101Z,60.5
2017-10-17T02:27:03.747Z,60.4
2017-10-17T02:32:03.315Z,60.1
2017-10-17T02:37:03.938Z,60.1
2017-10-17T02:42:03.972Z,60.1
2017-10-17T02:47:03.144Z,60.0
2017-10-17T02:52:03.381Z,59.9
2017-10-17T02:57:03.455Z,59.9
2017-10-17T03:02:03.532Z,59.4
2017-10-17T03:07:03.564Z,59.8
2017-10-17T03:12:03.869Z,59.8
2017-10-17T03:17:04.029Z,59.8
2017-10-17T03:22:03.213Z,59.6
2017-10-17T03:27:03.393Z,59.5
2017-10-17T03:32:03.528Z,59.4
2017-10-17T03:37:03.561Z,59.4
2017-10-17T03:42:03.682Z,59.5
2017-10-17T03:47:03.784Z,59.7
2017-10-17T03:52:03.872Z,59.6
2017-10-17T03:57:03.949Z,59.6
2017-10-17T04:02:03.090Z,59.0
2017-10-17T04:07:03.344Z,59.5
2017-10-17T04:12:03.541Z,59.4
2017-10-17T04:17:03.657Z,59.3
2017-10-17T04:22:03.814Z,59.2
2017-10-17T04:27:03.906Z,59.2
2017-10-17T04:32:04.045Z,59.1
2017-10-17T04:37:03.081Z,59.1
2017-10-17T04:42:03.201Z,59.0
2017-10-17T04:47:03.333Z,59.0
2017-10-17T04:52:03.395Z,59.0
2017-10-17T04:57:03.463Z,59.2
2017-10-17T05:02:03.575Z,59.1
2017-10-17T05:07:03.660Z,59.1
2017-10-17T05:12:03.962Z,59.1
2017-10-17T05:17:17.905Z,59.1
2017-10-17T05:22:03.443Z,59.1
2017-10-17T05:27:03.741Z,59.1
2017-10-17T05:32:22.433Z,59.0
2017-10-17T05:37:03.441Z,59.1
2017-10-17T05:42:03.213Z,59.1
2017-10-17T05:47:29.141Z,59.1
2017-10-17T05:52:02.916Z,59.0
2017-10-17T05:57:03.114Z,59.0
2017-10-17T06:02:28.666Z,59.2
2017-10-17T06:07:03.744Z,59.0
2017-10-17T06:12:03.995Z,59.0
2017-10-17T06:17:32.975Z,59.0
2017-10-17T06:22:03.700Z,58.8
2017-10-17T06:27:03.939Z,58.6
2017-10-17T06:32:23.659Z,58.2
2017-10-17T06:37:03.190Z,58.2
2017-10-17T06:42:03.658Z,58.3
2017-10-17T06:47:34.575Z,58.2
2017-10-17T06:52:03.135Z,58.0
2017-10-17T06:57:03.358Z,57.8
2017-10-17T07:02:28.678Z,57.6
2017-10-17T07:07:03.180Z,57.6
2017-10-17T07:12:03.611Z,57.5
2017-10-17T07:17:22.786Z,57.4
2017-10-17T07:22:03.493Z,57.4
2017-10-17T07:27:03.848Z,57.4
2017-10-17T07:32:28.564Z,57.4
2017-10-17T07:37:03.274Z,57.5
2017-10-17T07:42:03.123Z,57.5
2017-10-17T07:47:28.303Z,57.6
2017-10-17T07:52:03.815Z,57.5
2017-10-17T07:57:03.031Z,57.4
2017-10-17T08:02:28.261Z,57.6
2017-10-17T08:07:03.190Z,57.6
2017-10-17T08:12:03.525Z,57.8
2017-10-17T08:17:25.339Z,57.9
2017-10-17T08:22:03.597Z,58.0
2017-10-17T08:27:03.815Z,57.9
2017-10-17T08:32:23.827Z,58.2
2017-10-17T08:37:03.984Z,58.3
2017-10-17T08:42:03.098Z,58.4
2017-10-17T08:47:27.518Z,58.6
2017-10-17T08:52:03.778Z,58.7
2017-10-17T08:57:03.176Z,58.8
2017-10-17T09:02:25.342Z,59.2
2017-10-17T09:07:03.544Z,59.2
2017-10-17T09:12:03.689Z,59.4
2017-10-17T09:17:24.285Z,59.6
2017-10-17T09:22:03.450Z,59.6
2017-10-17T09:27:03.392Z,59.8
2017-10-17T09:32:24.246Z,60.0
2017-10-17T09:37:03.834Z,60.2
2017-10-17T09:42:03.342Z,60.4
2017-10-17T09:47:24.142Z,60.9
2017-10-17T09:52:03.422Z,61.2
2017-10-17T09:57:03.054Z,61.2
2017-10-17T10:02:24.223Z,61.7
2017-10-17T10:07:03.356Z,62.1
2017-10-17T10:12:03.353Z,62.0
2017-10-17T10:17:24.192Z,62.2
2017-10-17T10:22:03.574Z,62.5
2017-10-17T10:27:03.904Z,62.6
2017-10-17T10:32:28.477Z,63.4
2017-10-17T10:37:03.275Z,63.3
2017-10-17T10:42:03.605Z,63.7
2017-10-17T10:47:27.841Z,64.0
2017-10-17T10:52:03.261Z,64.0
2017-10-17T10:57:03.675Z,64.3
2017-10-17T11:02:24.238Z,64.3
2017-10-17T11:07:03.875Z,64.2
2017-10-17T11:12:03.238Z,64.7
2017-10-17T11:17:28.779Z,64.6
2017-10-17T11:22:03.901Z,64.6
2017-10-17T11:27:03.061Z,65.4
2017-10-17T11:32:28.618Z,65.4
2017-10-17T11:37:03.759Z,65.6
2017-10-17T11:42:03.308Z,65.4
2017-10-17T11:47:28.609Z,65.3
2017-10-17T11:52:03.266Z,65.9
2017-10-17T11:57:03.519Z,66.4
2017-10-17T12:02:28.775Z,66.0
2017-10-17T12:07:03.778Z,66.4
2017-10-17T12:12:03.114Z,66.4
2017-10-17T12:17:24.247Z,66.2
2017-10-17T12:22:03.320Z,66.2
2017-10-17T12:27:03.558Z,66.2
2017-10-17T12:32:28.693Z,67.0
2017-10-17T12:37:03.171Z,66.9
2017-10-17T12:42:03.396Z,66.9
2017-10-17T12:47:17.105Z,66.3
2017-10-17T12:52:03.137Z,67.0
2017-10-17T12:57:03.457Z,67.7
2017-10-17T13:02:24.653Z,67.7
2017-10-17T13:07:03.884Z,67.1
2017-10-17T13:12:03.304Z,67.2
2017-10-17T13:17:26.804Z,67.9
2017-10-17T13:22:03.264Z,68.2
2017-10-17T13:27:03.524Z,68.1
2017-10-17T13:32:24.026Z,68.2
2017-10-17T13:37:03.793Z,68.1
2017-10-17T13:42:03.719Z,68.5
2017-10-17T13:47:29.043Z,67.1
2017-10-17T13:52:02.880Z,66.0
2017-10-17T13:57:03.173Z,66.0
2017-10-17T14:02:25.382Z,63.5
2017-10-17T14:07:03.839Z,62.0
2017-10-17T14:12:03.246Z,61.9
2017-10-17T14:17:28.740Z,60.6
2017-10-17T14:22:03.932Z,59.0
2017-10-17T14:27:03.222Z,57.9
2017-10-17T14:32:22.035Z,56.7
2017-10-17T14:37:03.528Z,55.0
2017-10-17T14:42:03.740Z,54.5
2017-10-17T14:47:24.465Z,54.5
2017-10-17T14:52:03.188Z,53.9
2017-10-17T14:57:03.331Z,53.9
2017-10-17T15:02:24.589Z,53.7
2017-10-17T15:07:03.458Z,53.7
2017-10-17T15:12:03.685Z,53.5
2017-10-17T15:17:23.607Z,53.4
2017-10-17T15:22:03.152Z,53.4
2017-10-17T15:27:03.357Z,53.8
2017-10-17T15:32:22.508Z,54.3
2017-10-17T15:37:03.056Z,54.3
2017-10-17T15:42:03.192Z,55.1
2017-10-17T15:47:21.182Z,55.1
2017-10-17T15:52:03.138Z,55.8
2017-10-17T15:57:03.292Z,56.3
2017-10-17T16:02:21.946Z,57.7
2017-10-17T16:07:03.552Z,57.7
2017-10-17T16:12:03.793Z,59.1
2017-10-17T16:17:25.160Z,62.0
2017-10-17T16:22:03.632Z,61.3
2017-10-17T16:27:03.847Z,66.0
2017-10-17T16:32:26.608Z,67.0
2017-10-17T16:37:03.258Z,67.0
2017-10-17T16:42:03.733Z,67.2
2017-10-17T16:47:22.143Z,67.9
2017-10-17T16:52:03.406Z,67.9
2017-10-17T16:57:03.534Z,66.8
2017-10-17T17:02:16.799Z,66.4
2017-10-17T17:07:03.414Z,65.9
2017-10-17T17:12:03.780Z,65.9
2017-10-17T17:17:06.988Z,65.8
2017-10-17T17:22:03.158Z,65.3
2017-10-17T17:27:03.442Z,65.0
2017-10-17T17:32:03.912Z,64.6
2017-10-17T17:37:03.748Z,64.2
2017-10-17T17:42:03.691Z,64.2
2017-10-17T17:47:03.969Z,64.1
2017-10-17T17:52:02.956Z,63.8
2017-10-17T17:57:03.115Z,63.7
2017-10-17T18:02:03.286Z,63.9
2017-10-17T18:07:03.320Z,63.8
2017-10-17T18:12:03.664Z,63.7
2017-10-17T18:17:03.732Z,63.3
2017-10-17T18:22:03.833Z,63.0
2017-10-17T18:27:03.097Z,63.0
2017-10-17T18:32:03.268Z,62.9
2017-10-17T18:37:03.439Z,62.8
2017-10-17T18:42:03.423Z,62.8
2017-10-17T18:47:03.550Z,62.7
2017-10-17T18:52:03.705Z,62.6
2017-10-17T18:57:03.764Z,62.7
2017-10-17T19:02:03.925Z,62.7
2017-10-17T19:07:03.220Z,62.5
2017-10-17T19:12:03.563Z,62.0
2017-10-17T19:17:03.723Z,61.8
2017-10-17T19:22:03.767Z,61.7
2017-10-17T19:27:03.859Z,61.7
2017-10-17T19:32:03.057Z,61.7
2017-10-17T19:37:03.227Z,61.6
2017-10-17T19:42:03.249Z,61.5
2017-10-17T19:47:03.307Z,61.5
2017-10-17T19:52:03.456Z,61.2
2017-10-17T19:57:03.497Z,61.1
2017-10-17T20:02:03.680Z,61.0
2017-10-17T20:07:03.834Z,61.2
2017-10-17T20:12:03.219Z,61.0
2017-10-17T20:17:03.464Z,60.9
2017-10-17T20:22:03.817Z,60.9
2017-10-17T20:27:03.546Z,60.9
2017-10-17T20:32:03.567Z,60.8
2017-10-17T20:37:03.606Z,60.8
2017-10-17T20:42:03.671Z,60.7
2017-10-17T20:47:03.692Z,60.5
2017-10-17T20:52:03.751Z,60.6
2017-10-17T20:57:03.816Z,60.6
2017-10-17T21:02:03.965Z,60.6
2017-10-17T21:07:03.209Z,60.3
2017-10-17T21:12:03.403Z,60.3
2017-10-17T21:17:03.519Z,60.4
2017-10-17T21:22:03.578Z,60.3
2017-10-17T21:27:03.649Z,60.2
2017-10-17T21:32:03.692Z,60.2
2017-10-17T21:37:03.902Z,60.2
2017-10-17T21:42:03.026Z,60.1
2017-10-17T21:47:03.174Z,60.1
2017-10-17T21:52:03.330Z,60.0
2017-10-17T21:57:03.442Z,60.0
2017-10-17T22:02:03.635Z,59.8
2017-10-17T22:07:03.320Z,59.8
2017-10-17T22:12:03.525Z,59.8
2017-10-17T22:22:03.528Z,59.7
2017-10-17T22:27:03.675Z,59.7
2017-10-17T22:32:03.369Z,59.7
2017-10-17T22:37:03.123Z,59.7
2017-10-17T22:42:03.606Z,59.5
2017-10-17T22:47:03.425Z,59.6
2017-10-17T22:52:03.760Z,59.4
2017-10-17T22:57:03.369Z,59.4
2017-10-17T23:02:03.919Z,59.8
2017-10-17T23:07:03.676Z,59.3
2017-10-17T23:12:03.340Z,59.4
2017-10-17T23:17:04.048Z,59.2
2017-10-17T23:22:03.291Z,59.1
2017-10-17T23:27:03.887Z,59.1
2017-10-17T23:32:03.381Z,59.0
2017-10-17T23:37:03.812Z,58.9
2017-10-17T23:42:03.442Z,58.8
2017-10-17T23:47:03.231Z,58.7
2017-10-17T23:52:03.828Z,58.7
2017-10-17T23:57:03.587Z,58.9
